Clyde, Iowa
Current Conditions -  °F | °C
As of 1:53 AM on Sunday 21 Dec 2014 (Local Time) from KAMW Reporting Station
Moderate Fog Moderate Fog  
Wind Chill: -3°   Ceiling: 200
Heat Index:   Visibility: 0.5mi
Dew Point:   Wind: 10mph
Humidity: 96%   Direction: 150°SSE
Pressure: 30.05"   Gusts: NA
Location:  41.9063°N, 93.2893°W
Report Text: KAMW 210753Z AUTO 15009KT 1/2SM FG VV002 02/01 A3005 RMK AO2 SLP182 T00170011
Loading
Personal Weather Stations






























Interactive Weather Map New forecast layout! Learn more

10-Day Weather Forecast

Advertisements
Track Severe Weather on mobile